Main page
METAR-TAF:

METAR-TAF

Airports :

Manchester Airport

Manchester, England

latitude: 53-21N, longitude: 002-17W, elevation: 69 m

Current weather observation

The report was made 39 minutes ago, at 17:50 UTC
Wind 4 kt from the South, varying between Southeast and Southwest
Temperature 21°C
Humidity 46%
Pressure 1017 hPa
Visibility 10 km or more

METAR: EGCC 151750Z AUTO 19004KT 130V230 9999 NCD 21/09 Q1017

Time: 19:29 (18:29 UTC)

Forecast

The report was made 1 hour and 33 minutes ago, at 16:56 UTC
Forecast valid from 15 at 18 UTC to 16 at 24 UTC
Wind 4 kt from the South/Southwest
Visibility 10 km or more
Few clouds at a height of 4500 ft
Becoming
from 16 at 12 UTC to 16 at 15 UTC
Wind 10 kt from the West/Northwest
Probability 30% :
Temporary
from 16 at 14 UTC to 16 at 22 UTC
Broken clouds at a height of 1200 ft
Becoming
from 16 at 21 UTC to 16 at 24 UTC
Wind 3 kt from variable directions

TAF: EGCC 151656Z 1518/1624 20004KT 9999 FEW045 BECMG 1612/1615 30010KT PROB30 TEMPO 1614/1622 BKN012 BECMG 1621/1624 VRB03KT

Weather observations and forecasts of more than 4000 airports (METAR and TAF reports).

The available stations are represented by yellow and red dots on the map.

Hover mouse over dot to see the name of the station.

Then click to see weather observations and forecasts.

To change the map : click on the green buttons with a black cross to zoom in, on the green button with a dash to zoom out, or on the green arrows for adjacent maps.


METAR-TAF: